createdAt,value
2018-02-25T00:00:54.707Z,20.72
2018-02-25T00:01:54.663Z,20.74
2018-02-25T00:02:54.618Z,20.72
2018-02-25T00:03:54.579Z,20.69
2018-02-25T00:04:54.536Z,20.62
2018-02-25T00:05:54.496Z,20.62
2018-02-25T00:06:54.467Z,20.64
2018-02-25T00:07:54.410Z,20.65
2018-02-25T00:08:54.374Z,20.58
2018-02-25T00:09:54.337Z,20.62
2018-02-25T00:10:54.290Z,20.62
2018-02-25T00:11:54.253Z,20.61
2018-02-25T00:12:54.212Z,20.62
2018-02-25T00:13:54.164Z,20.46
2018-02-25T00:14:54.126Z,20.58
2018-02-25T00:15:54.087Z,20.49
2018-02-25T00:16:54.039Z,20.43
2018-02-25T00:17:54.005Z,20.49
2018-02-25T00:18:53.954Z,20.41
2018-02-25T00:19:53.916Z,20.42
2018-02-25T00:20:53.887Z,20.46
2018-02-25T00:21:53.841Z,20.42
2018-02-25T00:22:53.803Z,20.42
2018-02-25T00:23:53.758Z,20.42
2018-02-25T00:24:53.761Z,20.39
2018-02-25T00:25:53.698Z,20.43
2018-02-25T00:26:53.634Z,20.43
2018-02-25T00:27:53.598Z,20.35
2018-02-25T00:28:53.550Z,20.35
2018-02-25T00:29:53.518Z,20.30
2018-02-25T00:30:53.464Z,20.27
2018-02-25T00:31:53.432Z,20.27
2018-02-25T00:32:53.389Z,20.30
2018-02-25T00:33:53.340Z,20.25
2018-02-25T00:34:53.307Z,20.27
2018-02-25T00:35:53.270Z,20.24
2018-02-25T00:36:53.230Z,20.24
2018-02-25T00:37:53.231Z,20.21
2018-02-25T00:38:53.144Z,20.21
2018-02-25T00:39:53.100Z,20.24
2018-02-25T00:40:53.075Z,20.20
2018-02-25T00:41:53.096Z,20.16
2018-02-25T00:42:52.984Z,20.13
2018-02-25T00:43:52.929Z,20.12
2018-02-25T00:44:52.898Z,20.18
2018-02-25T00:45:52.855Z,20.09
2018-02-25T00:46:52.818Z,20.15
2018-02-25T00:47:52.783Z,20.16
2018-02-25T00:48:52.731Z,20.20
2018-02-25T00:49:52.689Z,20.18
2018-02-25T00:50:52.654Z,20.13
2018-02-25T00:51:52.613Z,20.09
2018-02-25T00:52:52.568Z,20.09
2018-02-25T00:53:52.525Z,20.06
2018-02-25T00:54:52.492Z,20.08
2018-02-25T00:55:52.450Z,20.00
2018-02-25T00:56:52.404Z,20.03
2018-02-25T00:57:52.367Z,20.12
2018-02-25T00:58:52.317Z,19.98
2018-02-25T00:59:52.283Z,20.02
2018-02-25T01:00:52.238Z,20.03
2018-02-25T01:01:52.209Z,20.03
2018-02-25T01:02:52.156Z,20.02
2018-02-25T01:03:52.119Z,19.97
2018-02-25T01:04:52.069Z,20.03
2018-02-25T01:05:52.033Z,19.88
2018-02-25T01:06:51.991Z,20.00
2018-02-25T01:07:51.946Z,19.97
2018-02-25T01:08:51.903Z,19.98
2018-02-25T01:09:51.866Z,19.98
2018-02-25T01:10:51.831Z,19.87
2018-02-25T01:11:51.789Z,19.95
2018-02-25T01:12:51.753Z,19.83
2018-02-25T01:13:51.713Z,19.95
2018-02-25T01:14:51.660Z,19.86
2018-02-25T01:15:51.626Z,19.94
2018-02-25T01:16:51.587Z,19.91
2018-02-25T01:17:51.539Z,19.88
2018-02-25T01:18:51.503Z,19.87
2018-02-25T01:19:51.463Z,19.86
2018-02-25T01:20:51.417Z,19.86
2018-02-25T01:21:52.163Z,19.87
2018-02-25T01:22:51.329Z,19.83
2018-02-25T01:23:51.349Z,19.86
2018-02-25T01:24:51.257Z,19.90
2018-02-25T01:25:52.164Z,19.84
2018-02-25T01:26:51.171Z,19.86
2018-02-25T01:27:51.665Z,19.84
2018-02-25T01:28:51.089Z,19.79
2018-02-25T01:29:51.049Z,19.84
2018-02-25T01:30:51.008Z,19.80
2018-02-25T01:31:50.964Z,19.76
2018-02-25T01:32:50.927Z,19.75
2018-02-25T01:33:50.880Z,19.75
2018-02-25T01:34:50.838Z,19.79
2018-02-25T01:35:50.807Z,19.73
2018-02-25T01:36:50.756Z,19.79
2018-02-25T01:37:50.712Z,19.76
2018-02-25T01:38:50.673Z,19.76
2018-02-25T01:39:50.630Z,19.72
2018-02-25T01:40:50.620Z,19.79
2018-02-25T01:41:50.546Z,19.66
2018-02-25T01:42:50.519Z,19.73
2018-02-25T01:43:50.464Z,19.72
2018-02-25T01:44:50.432Z,19.69
2018-02-25T01:45:50.376Z,19.65
2018-02-25T01:46:50.349Z,19.69
2018-02-25T01:47:50.303Z,19.69
2018-02-25T01:48:50.268Z,19.63
2018-02-25T01:49:50.232Z,19.65
2018-02-25T01:50:50.178Z,19.73
2018-02-25T01:51:50.141Z,19.66
2018-02-25T01:52:50.106Z,19.63
2018-02-25T01:53:50.064Z,19.66
2018-02-25T01:54:50.010Z,19.75
2018-02-25T01:55:49.968Z,19.60
2018-02-25T01:56:49.929Z,19.68
2018-02-25T01:57:49.895Z,19.57
2018-02-25T01:58:49.864Z,19.58
2018-02-25T01:59:49.808Z,19.61
2018-02-25T02:00:49.759Z,19.57
2018-02-25T02:01:49.720Z,19.60
2018-02-25T02:02:49.686Z,19.54
2018-02-25T02:03:49.642Z,19.54
2018-02-25T02:04:49.594Z,19.60
2018-02-25T02:05:49.597Z,19.51
2018-02-25T02:06:49.517Z,19.55
2018-02-25T02:07:49.492Z,19.58
2018-02-25T02:08:49.432Z,19.55
2018-02-25T02:09:49.479Z,19.60
2018-02-25T02:10:49.361Z,19.50
2018-02-25T02:11:49.306Z,19.54
2018-02-25T02:12:49.263Z,19.54
2018-02-25T02:13:49.233Z,19.55
2018-02-25T02:14:49.176Z,19.53
2018-02-25T02:15:49.151Z,19.48
2018-02-25T02:16:49.112Z,19.53
2018-02-25T02:17:49.061Z,19.53
2018-02-25T02:18:49.018Z,19.51
2018-02-25T02:19:48.978Z,19.48
2018-02-25T02:20:48.928Z,19.46
2018-02-25T02:21:48.887Z,19.51
2018-02-25T02:22:48.851Z,19.53
2018-02-25T02:23:48.814Z,19.48
2018-02-25T02:24:48.766Z,19.46
2018-02-25T02:25:48.739Z,19.51
2018-02-25T02:26:48.686Z,19.48
2018-02-25T02:27:48.647Z,19.48
2018-02-25T02:28:48.614Z,19.36
2018-02-25T02:29:48.558Z,19.36
2018-02-25T02:30:48.517Z,19.36
2018-02-25T02:31:48.476Z,19.40
2018-02-25T02:32:48.444Z,19.40
2018-02-25T02:33:48.397Z,19.39
2018-02-25T02:34:48.358Z,19.38
2018-02-25T02:35:48.325Z,19.35
2018-02-25T02:36:48.272Z,19.40
2018-02-25T02:37:48.229Z,19.36
2018-02-25T02:38:48.181Z,19.40
2018-02-25T02:39:48.152Z,19.40
2018-02-25T02:40:48.107Z,19.32
2018-02-25T02:41:48.063Z,19.32
2018-02-25T02:42:48.019Z,19.35
2018-02-25T02:43:47.978Z,19.33
2018-02-25T02:44:47.950Z,19.33
2018-02-25T02:45:47.902Z,19.33
2018-02-25T02:46:47.853Z,19.31
2018-02-25T02:47:47.814Z,19.18
2018-02-25T02:48:47.773Z,19.23
2018-02-25T02:49:47.722Z,19.24
2018-02-25T02:50:47.693Z,19.24
2018-02-25T02:51:48.187Z,19.21
2018-02-25T02:52:47.611Z,19.32
2018-02-25T02:53:47.574Z,19.18
2018-02-25T02:54:47.527Z,19.25
2018-02-25T02:55:47.478Z,19.33
2018-02-25T02:56:47.443Z,19.21
2018-02-25T02:57:47.408Z,19.20
2018-02-25T02:58:47.360Z,19.28
2018-02-25T02:59:47.312Z,19.20
2018-02-25T03:00:47.273Z,19.36
2018-02-25T03:01:47.231Z,19.24
2018-02-25T03:02:47.189Z,19.28
2018-02-25T03:03:47.146Z,19.21
2018-02-25T03:04:47.135Z,19.28
2018-02-25T03:05:47.064Z,19.24
2018-02-25T03:06:47.022Z,19.20
2018-02-25T03:07:46.984Z,19.18
2018-02-25T03:08:46.944Z,19.17
2018-02-25T03:09:46.894Z,19.20
2018-02-25T03:10:46.862Z,19.18
2018-02-25T03:11:46.818Z,19.13
2018-02-25T03:12:46.803Z,19.15
2018-02-25T03:13:46.739Z,19.18
2018-02-25T03:14:46.699Z,19.14
2018-02-25T03:15:46.648Z,19.20
2018-02-25T03:16:46.599Z,19.23
2018-02-25T03:17:46.566Z,19.15
2018-02-25T03:18:46.517Z,19.13
2018-02-25T03:19:46.482Z,19.08
2018-02-25T03:20:46.441Z,19.21
2018-02-25T03:21:46.400Z,19.14
2018-02-25T03:22:46.353Z,19.14
2018-02-25T03:23:46.314Z,19.13
2018-02-25T03:24:46.271Z,19.13
2018-02-25T03:25:46.227Z,19.11
2018-02-25T03:26:46.191Z,19.17
2018-02-25T03:27:46.141Z,19.08
2018-02-25T03:28:46.107Z,19.06
2018-02-25T03:29:46.064Z,19.10
2018-02-25T03:30:46.029Z,19.06
2018-02-25T03:31:45.982Z,19.14
2018-02-25T03:32:45.947Z,19.02
2018-02-25T03:33:45.889Z,18.99
2018-02-25T03:34:45.856Z,18.98
2018-02-25T03:35:45.819Z,19.11
2018-02-25T03:36:45.775Z,19.08
2018-02-25T03:37:45.729Z,19.02
2018-02-25T03:38:45.689Z,19.05
2018-02-25T03:39:45.644Z,19.05
2018-02-25T03:40:45.607Z,19.02
2018-02-25T03:41:45.570Z,18.98
2018-02-25T03:42:45.526Z,18.98
2018-02-25T03:43:45.479Z,19.01
2018-02-25T03:44:45.440Z,19.02
2018-02-25T03:45:45.397Z,18.97
2018-02-25T03:46:45.352Z,18.98
2018-02-25T03:47:45.314Z,19.08
2018-02-25T03:48:45.272Z,19.08
2018-02-25T03:49:45.228Z,18.97
2018-02-25T03:50:45.190Z,18.91
2018-02-25T03:51:45.150Z,18.94
2018-02-25T03:52:45.104Z,18.92
2018-02-25T03:53:45.063Z,18.91
2018-02-25T03:54:45.028Z,18.91
2018-02-25T03:55:44.981Z,18.90
2018-02-25T03:56:45.035Z,18.94
2018-02-25T03:57:44.897Z,18.94
2018-02-25T03:58:44.860Z,18.90
2018-02-25T03:59:44.812Z,18.91
2018-02-25T04:00:44.773Z,18.92
2018-02-25T04:01:44.725Z,18.94
2018-02-25T04:02:44.689Z,18.84
2018-02-25T04:03:44.640Z,18.95
2018-02-25T04:04:44.602Z,18.90
2018-02-25T04:05:44.560Z,18.84
2018-02-25T04:06:44.526Z,18.84
2018-02-25T04:07:44.475Z,18.84
2018-02-25T04:08:44.431Z,18.84
2018-02-25T04:09:44.396Z,18.84
2018-02-25T04:10:44.355Z,18.87
2018-02-25T04:11:44.310Z,18.91
2018-02-25T04:12:44.261Z,18.86
2018-02-25T04:13:44.228Z,18.87
2018-02-25T04:14:44.192Z,18.84
2018-02-25T04:15:44.138Z,18.87
2018-02-25T04:16:44.100Z,18.74
2018-02-25T04:17:44.058Z,18.84
2018-02-25T04:18:44.013Z,18.80
2018-02-25T04:19:43.980Z,18.73
2018-02-25T04:20:43.933Z,18.76
2018-02-25T04:21:43.891Z,18.68
2018-02-25T04:22:43.843Z,18.72
2018-02-25T04:23:43.809Z,18.70
2018-02-25T04:24:43.765Z,18.72
2018-02-25T04:25:43.725Z,18.74
2018-02-25T04:26:43.677Z,18.72
2018-02-25T04:27:43.642Z,18.72
2018-02-25T04:28:43.600Z,18.68
2018-02-25T04:29:43.556Z,18.70
2018-02-25T04:30:43.518Z,18.74
2018-02-25T04:31:43.467Z,18.70
2018-02-25T04:32:43.436Z,18.76
2018-02-25T04:33:43.396Z,18.72
2018-02-25T04:34:43.338Z,18.65
2018-02-25T04:35:43.344Z,18.68
2018-02-25T04:36:43.265Z,18.67
2018-02-25T04:37:43.220Z,18.70
2018-02-25T04:38:43.172Z,18.68
2018-02-25T04:39:43.137Z,18.74
2018-02-25T04:40:43.098Z,18.62
2018-02-25T04:41:43.056Z,18.64
2018-02-25T04:42:43.004Z,18.59
2018-02-25T04:43:42.970Z,18.65
2018-02-25T04:44:42.925Z,18.67
2018-02-25T04:45:42.887Z,18.58
2018-02-25T04:46:42.846Z,18.61
2018-02-25T04:47:42.792Z,18.62
2018-02-25T04:48:42.763Z,18.65
2018-02-25T04:49:42.721Z,18.57
2018-02-25T04:50:42.675Z,18.59
2018-02-25T04:51:42.639Z,18.61
2018-02-25T04:52:42.591Z,18.61
2018-02-25T04:53:42.547Z,18.55
2018-02-25T04:54:42.502Z,18.57
2018-02-25T04:55:42.465Z,18.55
2018-02-25T04:56:42.427Z,18.54
2018-02-25T04:57:42.383Z,18.57
2018-02-25T04:58:42.344Z,18.55
2018-02-25T04:59:42.290Z,18.62
2018-02-25T05:00:42.253Z,18.61
2018-02-25T05:01:42.215Z,18.61
2018-02-25T05:02:42.170Z,18.50
2018-02-25T05:03:42.123Z,18.54
2018-02-25T05:04:42.089Z,18.52
2018-02-25T05:05:42.045Z,18.50
2018-02-25T05:06:42.000Z,18.57
2018-02-25T05:07:41.951Z,18.50
2018-02-25T05:08:41.917Z,18.59
2018-02-25T05:09:41.872Z,18.49
2018-02-25T05:10:41.838Z,18.55
2018-02-25T05:11:41.798Z,18.55
2018-02-25T05:12:41.750Z,18.50
2018-02-25T05:13:41.753Z,18.54
2018-02-25T05:14:41.673Z,18.57
2018-02-25T05:15:41.624Z,18.52
2018-02-25T05:16:41.576Z,18.42
2018-02-25T05:17:41.542Z,18.47
2018-02-25T05:18:41.509Z,18.49
2018-02-25T05:19:41.459Z,18.39
2018-02-25T05:20:41.512Z,18.39
2018-02-25T05:21:41.370Z,18.39
2018-02-25T05:22:41.332Z,18.37
2018-02-25T05:23:41.286Z,18.37
2018-02-25T05:24:41.235Z,18.43
2018-02-25T05:25:41.203Z,18.43
2018-02-25T05:26:41.157Z,18.47
2018-02-25T05:27:41.115Z,18.36
2018-02-25T05:28:41.076Z,18.43
2018-02-25T05:29:41.038Z,18.37
2018-02-25T05:30:40.990Z,18.34
2018-02-25T05:31:40.949Z,18.39
2018-02-25T05:32:40.919Z,18.44
2018-02-25T05:33:40.858Z,18.36
2018-02-25T05:34:40.820Z,18.39
2018-02-25T05:35:40.787Z,18.40
2018-02-25T05:36:40.737Z,18.37
2018-02-25T05:37:40.698Z,18.37
2018-02-25T05:38:40.657Z,18.36
2018-02-25T05:39:40.618Z,18.34
2018-02-25T05:40:40.575Z,18.31
2018-02-25T05:41:40.537Z,18.34
2018-02-25T05:42:40.487Z,18.29
2018-02-25T05:43:40.448Z,18.33
2018-02-25T05:44:40.399Z,18.28
2018-02-25T05:45:40.362Z,18.31
2018-02-25T05:46:40.327Z,18.28
2018-02-25T05:47:40.267Z,18.22
2018-02-25T05:48:40.238Z,18.34
2018-02-25T05:49:40.184Z,18.31
2018-02-25T05:50:40.152Z,18.25
2018-02-25T05:51:40.154Z,18.25
2018-02-25T05:52:40.054Z,18.25
2018-02-25T05:53:40.021Z,18.28
2018-02-25T05:54:39.996Z,18.22
2018-02-25T05:55:39.941Z,18.25
2018-02-25T05:56:39.897Z,18.27
2018-02-25T05:57:39.864Z,18.22
2018-02-25T05:58:39.814Z,18.21
2018-02-25T05:59:39.765Z,18.22
2018-02-25T06:00:39.749Z,18.24
2018-02-25T06:01:39.683Z,18.21
2018-02-25T06:02:39.696Z,18.19
2018-02-25T06:03:39.600Z,18.18
2018-02-25T06:04:39.664Z,18.24
2018-02-25T06:05:39.512Z,18.19
2018-02-25T06:06:39.465Z,18.13
2018-02-25T06:07:39.435Z,18.21
2018-02-25T06:08:39.391Z,18.12
2018-02-25T06:09:39.345Z,18.18
2018-02-25T06:10:39.304Z,18.18
2018-02-25T06:11:39.264Z,18.21
2018-02-25T06:12:39.219Z,18.21
2018-02-25T06:13:39.190Z,18.12
2018-02-25T06:14:39.139Z,18.19
2018-02-25T06:15:39.099Z,18.17
2018-02-25T06:16:39.051Z,18.12
2018-02-25T06:17:39.008Z,18.19
2018-02-25T06:18:38.970Z,18.13
2018-02-25T06:19:38.924Z,18.10
2018-02-25T06:20:38.881Z,18.07
2018-02-25T06:21:38.852Z,18.18
2018-02-25T06:22:38.804Z,18.19
2018-02-25T06:23:38.747Z,18.13
2018-02-25T06:24:38.716Z,18.12
2018-02-25T06:25:38.671Z,18.22
2018-02-25T06:26:38.627Z,18.19
2018-02-25T06:27:38.590Z,18.12
2018-02-25T06:28:38.546Z,18.10
2018-02-25T06:29:38.505Z,18.17
2018-02-25T06:30:38.461Z,18.12
2018-02-25T06:31:38.413Z,18.15
2018-02-25T06:32:38.373Z,18.17
2018-02-25T06:33:38.338Z,18.17
2018-02-25T06:34:38.288Z,18.19
2018-02-25T06:35:38.252Z,18.29
2018-02-25T06:36:38.206Z,18.27
2018-02-25T06:37:38.163Z,18.29
2018-02-25T06:38:38.126Z,18.27
2018-02-25T06:39:38.080Z,18.36
2018-02-25T06:40:38.035Z,18.33
2018-02-25T06:41:37.985Z,18.39
2018-02-25T06:42:37.954Z,18.37
2018-02-25T06:43:37.907Z,18.40
2018-02-25T06:44:37.868Z,18.36
2018-02-25T06:45:37.829Z,18.54
2018-02-25T06:46:37.853Z,18.50
2018-02-25T06:47:37.738Z,18.62
2018-02-25T06:48:37.689Z,18.57
2018-02-25T06:49:37.661Z,18.54
2018-02-25T06:50:37.607Z,18.59
2018-02-25T06:51:37.572Z,18.65
2018-02-25T06:52:37.529Z,18.65
2018-02-25T06:53:37.493Z,18.76
2018-02-25T06:54:37.461Z,18.68
2018-02-25T06:55:37.396Z,18.74
2018-02-25T06:56:37.359Z,18.77
2018-02-25T06:57:37.322Z,18.86
2018-02-25T06:58:37.278Z,18.87
2018-02-25T06:59:37.239Z,18.84
2018-02-25T07:00:37.194Z,18.97
2018-02-25T07:01:37.173Z,19.08
2018-02-25T07:02:37.107Z,18.97
2018-02-25T07:03:37.114Z,18.98
2018-02-25T07:04:37.029Z,19.10
2018-02-25T07:05:37.749Z,19.17
2018-02-25T07:06:36.949Z,19.10
2018-02-25T07:07:36.974Z,19.17
2018-02-25T07:08:36.859Z,19.21
2018-02-25T07:09:36.812Z,19.23
2018-02-25T07:10:36.788Z,19.21
2018-02-25T07:11:36.737Z,19.24
2018-02-25T07:12:36.690Z,19.32
2018-02-25T07:13:36.642Z,19.36
2018-02-25T07:14:36.605Z,19.38
2018-02-25T07:15:36.555Z,19.46
2018-02-25T07:16:36.539Z,19.46
2018-02-25T07:17:36.477Z,19.47
2018-02-25T07:18:36.442Z,19.51
2018-02-25T07:19:36.393Z,19.53
2018-02-25T07:20:36.354Z,19.55
2018-02-25T07:21:36.311Z,19.65
2018-02-25T07:22:36.267Z,19.55
2018-02-25T07:23:36.225Z,19.60
2018-02-25T07:24:36.203Z,19.66
2018-02-25T07:25:36.139Z,19.70
2018-02-25T07:26:36.102Z,19.75
2018-02-25T07:27:36.057Z,19.73
2018-02-25T07:28:36.020Z,19.73
2018-02-25T07:29:35.969Z,19.84
2018-02-25T07:30:35.943Z,19.90
2018-02-25T07:31:35.891Z,19.88
2018-02-25T07:32:35.849Z,19.79
2018-02-25T07:33:35.813Z,19.91
2018-02-25T07:34:35.764Z,20.00
2018-02-25T07:35:35.769Z,20.00
2018-02-25T07:36:35.685Z,20.02
2018-02-25T07:37:35.640Z,20.02
2018-02-25T07:38:35.601Z,20.03
2018-02-25T07:39:35.562Z,20.09
2018-02-25T07:40:35.514Z,20.21
2018-02-25T07:41:35.474Z,20.12
2018-02-25T07:42:35.429Z,20.16
2018-02-25T07:43:35.394Z,20.16
2018-02-25T07:44:35.360Z,20.25
2018-02-25T07:45:35.315Z,20.24
2018-02-25T07:46:35.266Z,20.25
2018-02-25T07:47:35.760Z,20.33
2018-02-25T07:48:35.181Z,20.38
2018-02-25T07:49:35.759Z,20.39
2018-02-25T07:50:35.100Z,20.43
2018-02-25T07:51:35.189Z,20.47
2018-02-25T07:52:35.029Z,20.51
2018-02-25T07:53:34.979Z,20.46
2018-02-25T07:54:34.985Z,20.59
2018-02-25T07:55:34.902Z,20.54
2018-02-25T07:56:34.863Z,20.61
2018-02-25T07:57:34.808Z,20.61
2018-02-25T07:58:34.775Z,20.62
2018-02-25T07:59:34.730Z,20.71
2018-02-25T08:00:34.695Z,20.72
2018-02-25T08:01:34.644Z,20.76
2018-02-25T08:02:34.615Z,20.71
2018-02-25T08:03:34.573Z,20.87
2018-02-25T08:04:34.523Z,20.84
2018-02-25T08:05:34.478Z,20.76
2018-02-25T08:06:34.441Z,20.87
2018-02-25T08:07:34.402Z,20.86
2018-02-25T08:08:34.363Z,20.87
2018-02-25T08:09:34.311Z,20.96
2018-02-25T08:10:34.266Z,20.93
2018-02-25T08:11:34.242Z,20.91
2018-02-25T08:12:34.181Z,21.02
2018-02-25T08:13:34.162Z,21.04
2018-02-25T08:14:34.105Z,21.08
2018-02-25T08:15:34.073Z,21.09
2018-02-25T08:16:34.021Z,21.02
2018-02-25T08:17:33.987Z,21.05
2018-02-25T08:18:33.946Z,21.09
2018-02-25T08:19:33.908Z,21.16
2018-02-25T08:20:33.861Z,21.20
2018-02-25T08:21:33.821Z,21.20
2018-02-25T08:22:33.779Z,21.24
2018-02-25T08:23:33.746Z,21.20
2018-02-25T08:24:33.706Z,21.26
2018-02-25T08:25:33.654Z,21.23
2018-02-25T08:26:33.615Z,21.35
2018-02-25T08:27:33.576Z,21.34
2018-02-25T08:28:33.538Z,21.30
2018-02-25T08:29:33.509Z,21.32
2018-02-25T08:30:33.457Z,21.35
2018-02-25T08:31:33.465Z,21.38
2018-02-25T08:32:33.375Z,21.38
2018-02-25T08:33:33.388Z,21.44
2018-02-25T08:34:33.290Z,21.45
2018-02-25T08:35:33.777Z,21.48
2018-02-25T08:36:33.214Z,21.50
2018-02-25T08:37:33.166Z,21.42
2018-02-25T08:38:33.129Z,21.51
2018-02-25T08:39:33.083Z,21.44
2018-02-25T08:40:33.044Z,21.48
2018-02-25T08:41:33.005Z,21.45
2018-02-25T08:42:32.970Z,21.46
2018-02-25T08:43:32.932Z,21.48
2018-02-25T08:44:32.880Z,21.46
2018-02-25T08:45:32.842Z,21.53
2018-02-25T08:46:32.799Z,21.64
2018-02-25T08:47:32.755Z,21.61
2018-02-25T08:48:32.720Z,21.69
2018-02-25T08:49:32.678Z,21.69
2018-02-25T08:50:32.633Z,21.78
2018-02-25T08:51:32.600Z,21.82
2018-02-25T08:52:32.556Z,21.82
2018-02-25T08:53:32.525Z,21.76
2018-02-25T08:54:32.466Z,21.85
2018-02-25T08:55:32.423Z,21.95
2018-02-25T08:56:32.399Z,21.94
2018-02-25T08:57:32.352Z,21.97
2018-02-25T08:58:32.312Z,21.97
2018-02-25T08:59:32.270Z,22.06
2018-02-25T09:00:32.233Z,21.98
2018-02-25T09:01:32.190Z,21.99
2018-02-25T09:02:32.152Z,22.04
2018-02-25T09:03:32.102Z,22.13
2018-02-25T09:04:32.084Z,22.07
2018-02-25T09:05:32.037Z,22.10
2018-02-25T09:06:31.985Z,22.14
2018-02-25T09:07:31.952Z,22.22
2018-02-25T09:08:31.902Z,22.23
2018-02-25T09:09:31.863Z,22.29
2018-02-25T09:10:31.826Z,22.28
2018-02-25T09:11:31.782Z,22.32
2018-02-25T09:12:31.758Z,22.34
2018-02-25T09:13:31.706Z,22.31
2018-02-25T09:14:31.656Z,22.31
2018-02-25T09:15:31.629Z,22.34
2018-02-25T09:16:31.582Z,22.50
2018-02-25T09:17:31.599Z,22.47
2018-02-25T09:18:31.505Z,22.38
2018-02-25T09:19:31.564Z,22.43
2018-02-25T09:20:31.434Z,22.43
2018-02-25T09:21:31.374Z,22.53
2018-02-25T09:22:31.343Z,22.52
2018-02-25T09:23:31.301Z,22.49
2018-02-25T09:24:31.263Z,22.53
2018-02-25T09:25:31.214Z,22.54
2018-02-25T09:26:31.178Z,22.57
2018-02-25T09:27:31.144Z,22.68
2018-02-25T09:28:31.133Z,22.64
2018-02-25T09:29:31.051Z,22.67
2018-02-25T09:30:31.032Z,22.75
2018-02-25T09:31:30.979Z,22.68
2018-02-25T09:32:30.937Z,22.75
2018-02-25T09:33:30.890Z,22.77
2018-02-25T09:34:30.859Z,22.84
2018-02-25T09:35:30.833Z,22.84
2018-02-25T09:36:30.773Z,22.75
2018-02-25T09:37:30.734Z,22.84
2018-02-25T09:38:30.712Z,22.86
2018-02-25T09:39:30.654Z,22.92
2018-02-25T09:40:30.623Z,22.84
2018-02-25T09:41:30.591Z,22.87
2018-02-25T09:42:30.531Z,22.90
2018-02-25T09:43:30.501Z,22.93
2018-02-25T09:44:30.453Z,22.93
2018-02-25T09:45:30.410Z,23.05
2018-02-25T09:46:30.377Z,23.07
2018-02-25T09:47:30.342Z,23.07
2018-02-25T09:48:30.294Z,23.12
2018-02-25T09:49:30.251Z,23.17
2018-02-25T09:50:30.219Z,23.07
2018-02-25T09:51:30.176Z,23.08
2018-02-25T09:52:30.137Z,23.19
2018-02-25T09:53:30.100Z,23.11
2018-02-25T09:54:30.047Z,23.17
2018-02-25T09:55:30.017Z,23.14
2018-02-25T09:56:29.979Z,23.12
2018-02-25T09:57:29.939Z,23.19
2018-02-25T09:58:29.897Z,23.14
2018-02-25T09:59:29.857Z,23.29
2018-02-25T10:00:29.817Z,23.22
2018-02-25T10:01:29.779Z,22.99
2018-02-25T10:02:29.734Z,21.97
2018-02-25T10:03:29.704Z,20.79
2018-02-25T10:04:29.646Z,19.87
2018-02-25T10:05:29.701Z,19.58
2018-02-25T10:06:29.577Z,19.54
2018-02-25T10:07:29.544Z,19.66
2018-02-25T10:08:29.492Z,19.72
2018-02-25T10:09:29.448Z,19.79
2018-02-25T10:10:29.428Z,19.93
2018-02-25T10:11:29.372Z,20.09
2018-02-25T10:12:29.335Z,20.27
2018-02-25T10:13:29.326Z,20.50
2018-02-25T10:14:29.251Z,20.69
2018-02-25T10:15:29.218Z,20.87
2018-02-25T10:16:29.176Z,21.04
2018-02-25T10:17:29.153Z,21.24
2018-02-25T10:18:29.092Z,21.39
2018-02-25T10:19:29.064Z,21.60
2018-02-25T10:20:29.024Z,21.79
2018-02-25T10:21:28.966Z,21.79
2018-02-25T10:22:28.931Z,21.99
2018-02-25T10:23:28.892Z,22.06
2018-02-25T10:24:28.849Z,22.17
2018-02-25T10:25:28.832Z,22.19
2018-02-25T10:26:28.770Z,22.35
2018-02-25T10:27:28.735Z,22.43
2018-02-25T10:28:28.682Z,22.50
2018-02-25T10:29:28.654Z,22.62
2018-02-25T10:30:28.605Z,22.67
2018-02-25T10:31:28.574Z,22.84
2018-02-25T10:32:28.551Z,22.87
2018-02-25T10:33:28.487Z,22.90
2018-02-25T10:34:28.446Z,22.92
2018-02-25T10:35:28.408Z,22.99
2018-02-25T10:36:28.362Z,23.07
2018-02-25T10:37:28.334Z,23.14
2018-02-25T10:38:28.283Z,23.19
2018-02-25T10:39:28.254Z,23.24
2018-02-25T10:40:28.212Z,23.23
2018-02-25T10:41:28.172Z,23.34
2018-02-25T10:42:28.150Z,23.39
2018-02-25T10:43:28.089Z,23.49
2018-02-25T10:44:28.061Z,23.58
2018-02-25T10:45:28.005Z,23.62
2018-02-25T10:46:27.978Z,23.62
2018-02-25T10:47:27.931Z,23.67
2018-02-25T10:48:27.895Z,23.82
2018-02-25T10:49:27.907Z,23.85
2018-02-25T10:50:27.822Z,23.92
2018-02-25T10:51:27.790Z,23.97
2018-02-25T10:52:27.748Z,23.95
2018-02-25T10:53:27.739Z,24.14
2018-02-25T10:54:27.660Z,24.14
2018-02-25T10:55:27.609Z,24.12
2018-02-25T10:56:27.563Z,24.17
2018-02-25T10:57:27.521Z,24.17
2018-02-25T10:58:27.497Z,24.29
2018-02-25T10:59:27.448Z,24.34
2018-02-25T11:00:27.422Z,24.35
2018-02-25T11:01:27.380Z,24.42
2018-02-25T11:02:27.342Z,24.47
2018-02-25T11:03:27.286Z,24.50
2018-02-25T11:04:27.261Z,24.50
2018-02-25T11:05:27.228Z,24.54
2018-02-25T11:06:27.174Z,24.59
2018-02-25T11:07:27.137Z,24.63
2018-02-25T11:08:27.091Z,24.61
2018-02-25T11:09:27.060Z,24.75
2018-02-25T11:10:27.015Z,24.71
2018-02-25T11:11:26.979Z,24.80
2018-02-25T11:12:26.955Z,24.87
2018-02-25T11:13:26.903Z,24.77
2018-02-25T11:14:26.858Z,24.80
2018-02-25T11:15:26.840Z,24.87
2018-02-25T11:16:26.794Z,24.79
2018-02-25T11:17:26.760Z,24.87
2018-02-25T11:18:26.710Z,24.98
2018-02-25T11:19:26.659Z,24.97
2018-02-25T11:20:26.612Z,25.01
2018-02-25T11:21:26.589Z,25.09
2018-02-25T11:22:26.541Z,25.07
2018-02-25T11:23:26.498Z,25.09
2018-02-25T11:24:26.466Z,25.17
2018-02-25T11:25:26.426Z,25.15
2018-02-25T11:26:26.391Z,25.22
2018-02-25T11:27:26.362Z,25.19
2018-02-25T11:28:26.305Z,25.25
2018-02-25T11:29:26.257Z,25.27
2018-02-25T11:30:26.229Z,25.34
2018-02-25T11:31:26.287Z,25.31
2018-02-25T11:32:26.144Z,25.38
2018-02-25T11:33:26.117Z,25.47
2018-02-25T11:34:26.078Z,25.56
2018-02-25T11:35:26.030Z,25.50
2018-02-25T11:36:26.015Z,25.61
2018-02-25T11:37:25.960Z,25.59
2018-02-25T11:38:25.910Z,25.68
2018-02-25T11:39:25.935Z,25.69
2018-02-25T11:40:25.845Z,25.74
2018-02-25T11:41:25.863Z,25.72
2018-02-25T11:42:25.763Z,25.67
2018-02-25T11:43:25.725Z,25.68
2018-02-25T11:44:25.684Z,25.80
2018-02-25T11:45:25.649Z,25.83
2018-02-25T11:46:25.606Z,25.82
2018-02-25T11:47:25.575Z,25.86
2018-02-25T11:48:25.526Z,25.97
2018-02-25T11:49:25.496Z,25.91
2018-02-25T11:50:25.460Z,25.99
2018-02-25T11:51:25.406Z,26.04
2018-02-25T11:52:25.378Z,26.09
2018-02-25T11:53:25.337Z,26.04
2018-02-25T11:54:25.284Z,26.20
2018-02-25T11:55:25.309Z,26.24
2018-02-25T11:56:25.285Z,26.28
2018-02-25T11:57:25.203Z,26.27
2018-02-25T11:58:25.178Z,26.24
2018-02-25T11:59:25.098Z,26.36
2018-02-25T12:00:25.080Z,26.32
2018-02-25T12:01:25.022Z,26.32
2018-02-25T12:02:24.995Z,26.35
2018-02-25T12:03:24.938Z,26.36
2018-02-25T12:04:24.909Z,26.52
2018-02-25T12:05:24.868Z,26.46
2018-02-25T12:06:24.854Z,26.55
2018-02-25T12:07:24.779Z,26.57
2018-02-25T12:08:24.773Z,26.58
2018-02-25T12:09:24.717Z,26.68
2018-02-25T12:10:24.671Z,26.64
2018-02-25T12:11:24.636Z,26.73
2018-02-25T12:12:24.603Z,26.73
2018-02-25T12:13:24.561Z,26.73
2018-02-25T12:14:24.518Z,26.86
2018-02-25T12:15:24.488Z,26.84
2018-02-25T12:16:24.454Z,26.84
2018-02-25T12:17:24.400Z,26.96
2018-02-25T12:18:24.377Z,26.95
2018-02-25T12:19:24.332Z,26.95
2018-02-25T12:20:24.296Z,26.96
2018-02-25T12:21:24.258Z,26.99
2018-02-25T12:22:24.220Z,26.99
2018-02-25T12:23:24.171Z,27.02
2018-02-25T12:24:24.141Z,26.99
2018-02-25T12:25:24.086Z,27.05
2018-02-25T12:26:24.341Z,26.96
2018-02-25T12:27:24.030Z,27.14
2018-02-25T12:28:24.031Z,27.11
2018-02-25T12:29:24.845Z,27.10
2018-02-25T12:30:23.901Z,27.14
2018-02-25T12:31:23.857Z,27.14
2018-02-25T12:32:23.827Z,26.95
2018-02-25T12:33:23.790Z,26.98
2018-02-25T12:34:23.758Z,26.81
2018-02-25T12:35:23.770Z,26.77
2018-02-25T12:36:23.677Z,26.76
2018-02-25T12:37:23.638Z,26.72
2018-02-25T12:38:24.599Z,26.76
2018-02-25T12:39:23.589Z,26.81
2018-02-25T12:40:23.520Z,26.84
2018-02-25T12:41:23.496Z,26.94
2018-02-25T12:42:23.463Z,26.84
2018-02-25T12:43:23.417Z,26.92
2018-02-25T12:44:23.369Z,26.96
2018-02-25T12:45:23.330Z,26.94
2018-02-25T12:46:23.293Z,26.96
2018-02-25T12:47:23.258Z,26.83
2018-02-25T12:48:23.284Z,26.76
2018-02-25T12:49:23.184Z,26.76
2018-02-25T12:50:23.161Z,26.73
2018-02-25T12:51:23.109Z,26.69
2018-02-25T12:52:23.103Z,26.61